VAM | Vabird-VBD

Virtual Vabird! Aerolínea Virtual de habla hispana, desde 2011




 INFORMACIÓN METAR y TAF
METAR FOR LOWK
ADDS - METARS form results

(0045 UTC 22 June 2021)
Data provider http://aviationweather.gov/metar/data/
 
METAR text: LOWK 220020Z AUTO VRB01KT 9999 NCD 22/15 Q1010
Conditions at: LOWK (KLAGENFURT(CIV/M, AT) observed 0020 UTC 22 June 2021
Temperature: 22.0°C (72°F)
Dewpoint: 15.0°C (59°F) [RH = 65%]
Pressure (altimeter): 29.82 inches Hg (1010.0 mb)
Winds: variable direction winds at 1 MPH (1 knots; 0.5 m/s)
Visibility: 6 or more miles (10+ km)
Ceiling: at least 12,000 feet AGL
Clouds: sky clear below 12,000 feet AGL
Weather: no significant weather observed at this time

METAR text: LOWK 212350Z AUTO VRB02KT 9999 NCD 22/15 Q1010
Conditions at: LOWK (KLAGENFURT(CIV/M, AT) observed 2350 UTC 21 June 2021
Temperature: 22.0°C (72°F)
Dewpoint: 15.0°C (59°F) [RH = 65%]
Pressure (altimeter): 29.82 inches Hg (1010.0 mb)
Winds: variable direction winds at 2 MPH (2 knots; 1.0 m/s)
Visibility: 6 or more miles (10+ km)
Ceiling: at least 12,000 feet AGL
Clouds: sky clear below 12,000 feet AGL
Weather: no significant weather observed at this time

Forecast for: LOWK (KLAGENFURT(CIV/M, AT)
Text: TAF LOWK 212315Z 2200/2224 VRB05KT CAVOK TX33/2214Z TN18/2204Z
Forecast period: 0000 UTC 22 June 2021 to 0000 UTC 23 June 2021
Forecast type: FROM: standard forecast or significant change
Winds: variable direction winds at 6 MPH (5 knots; 2.6 m/s)
Visibility: 6 or more miles (10+ km)
Ceiling: unknown
Clouds: missing
Weather: no significant weather forecast for this period
Text: TEMPO 2212/2219 22010G20KT
Forecast period: 1200 to 1900 UTC 22 June 2021
Forecast type: TEMPORARY: The following changes expected for less than half the time period
Winds: from the SW (220 degrees) at 12 MPH (10 knots; 5.1 m/s)
gusting to 23 MPH (20 knots; 10.3 m/s)
Visibility: missing
Ceiling: unknown
Clouds: missing
Weather: no significant weather forecast for this period

 MAPA DE AEROPUERTO

 INFORMACIÓN DE PISTA